Latest Weather Observations for Wilsons Promontory

IDV60801

Issued at 10:31 am EDT Sunday 14 February 2016 (issued every 30 minutes, with the page automatically refreshed every 10 minutes)

About weather observations | Map of weather stations | Latest weather observations for VIC | Other Formats
Station Details ID: 085096 Name: WILSONS PROMONTORY LIGHTHOUSE Lat: -39.13 Lon: 146.42 Height: 95.0 m
Data from the previous 72 hours. | See also: Recent months at Wilsons Promontory
Date/Time
EDT
Temp
°C
App
Temp
°C
Dew
Point
Rel
Hum
%
Delta-T
°C
Wind Press
QNH
hPa
Press
MSL
hPa
Rain
since 9 am
mm
Dir
 
Spd
km/h
Gust
km/h
Spd
kts
Gust
kts
14/10:30am 19.6 13.1 11.6 60 4.4 W 37 52 20 28 1008.8 - 0.0
14/10:14am 19.3 13.4 11.3 60 4.4 W 33 52 18 28 1008.7 - 0.0
14/10:00am 18.5 12.5 10.8 61 4.2 W 33 48 18 26 1008.8 - 0.0
14/09:30am 17.9 10.0 12.6 71 3.0 W 46 67 25 36 1008.5 - 0.0
14/09:01am 17.6 11.6 12.1 70 3.0 W 35 54 19 29 1009.1 - 0.0
14/09:00am 17.6 11.2 12.1 70 3.0 W 37 54 20 29 1009.0 1008.8 1.2
14/08:39am 17.9 11.2 11.0 64 3.7 W 37 56 20 30 1008.3 - 1.2
14/08:30am 17.9 13.0 11.2 65 3.6 W 28 43 15 23 1008.6 - 1.2
14/08:25am 17.9 13.0 11.2 65 3.6 W 28 46 15 25 1008.6 - 1.2
14/08:00am 17.8 11.8 10.7 63 3.8 W 33 43 18 23 1008.3 - 1.2
14/07:38am 17.9 12.9 11.0 64 3.7 W 28 48 15 26 1008.1 - 1.2
14/07:30am 17.8 12.9 11.4 66 3.5 W 28 39 15 21 1008.2 - 1.2
14/07:21am 17.1 11.4 11.2 68 3.2 W 32 50 17 27 1008.0 - 1.2
14/07:00am 17.1 11.5 12.2 73 2.7 W 33 43 18 23 1007.6 - 1.2
14/06:30am 17.1 10.3 10.7 66 3.4 W 37 52 20 28 1007.4 - 1.2
14/06:00am 17.5 10.9 11.3 67 3.4 W 37 57 20 31 1006.9 1006.6 1.2
14/05:31am 17.3 10.6 10.9 66 3.5 W 37 61 20 33 1006.8 - 1.2
14/05:30am 17.3 11.0 11.1 67 3.4 W 35 50 19 27 1006.9 - 1.2
14/05:07am 17.3 11.6 11.3 68 3.3 W 32 50 17 27 1006.9 - 1.2
14/05:00am 17.3 11.1 11.3 68 3.3 W 35 50 19 27 1006.8 - 1.2
14/04:30am 17.5 10.9 11.3 67 3.4 W 37 50 20 27 1006.6 - 1.2
14/04:00am 17.4 9.9 11.0 66 3.5 W 41 54 22 29 1006.6 - 1.2
14/03:35am 17.4 11.1 11.2 67 3.4 W 35 56 19 30 1006.6 - 1.2
14/03:30am 17.4 10.7 11.0 66 3.5 W 37 52 20 28 1006.7 - 1.2
14/03:00am 17.5 11.4 11.8 69 3.1 W 35 50 19 27 1006.7 1006.4 1.2
14/02:32am 17.3 13.6 14.9 86 1.4 W 28 46 15 25 1006.9 - 1.2
14/02:30am 17.2 13.9 15.0 87 1.3 W 26 35 14 19 1007.1 - 1.2
14/02:19am 17.1 13.4 14.9 87 1.3 W 28 46 15 25 1007.3 - 1.2
14/02:00am 17.0 12.1 15.3 90 1.0 W 35 52 19 28 1007.2 - 1.2
14/01:58am 17.0 12.5 15.3 90 1.0 W 33 52 18 28 1007.1 - 1.2
14/01:30am 18.2 16.1 15.3 83 1.7 W 20 32 11 17 1007.4 - 0.0
14/01:00am 18.4 15.1 14.9 80 2.0 W 26 37 14 20 1007.6 - 0.0
14/12:30am 18.5 14.2 15.4 82 1.8 W 32 41 17 22 1007.6 - 0.0
14/12:00am 18.9 15.2 15.9 83 1.8 W 30 41 16 22 1007.6 1007.4 0.0
 
Date/Time
EDT
Temp
°C
App
Temp
°C
Dew
Point
Rel
Hum
%
Delta-T
°C
Wind Press
QNH
hPa
Press
MSL
hPa
Rain
since 9 am
mm
Dir
 
Spd
km/h
Gust
km/h
Spd
kts
Gust
kts
13/11:30pm 19.1 16.2 16.1 83 1.8 W 26 41 14 22 1007.5 - 0.0
13/11:00pm 19.1 16.2 16.1 83 1.8 W 26 39 14 21 1007.6 - 0.0
13/10:30pm 19.2 16.3 16.2 83 1.8 W 26 39 14 21 1007.8 - 0.0
13/10:00pm 19.0 16.1 16.0 83 1.8 W 26 39 14 21 1007.7 - 0.0
13/09:30pm 19.0 16.0 15.9 82 1.8 W 26 39 14 21 1007.4 - 0.0
13/09:00pm 19.1 15.9 15.4 79 2.2 W 26 35 14 19 1007.1 1006.8 0.0
13/08:30pm 19.1 15.3 15.8 81 2.0 W 30 39 16 21 1006.9 - 0.0
13/08:00pm 19.4 14.3 15.7 79 2.2 W 37 46 20 25 1006.4 - 0.0
13/07:30pm 19.7 13.8 15.6 77 2.4 W 41 50 22 27 1006.1 - 0.0
13/07:00pm 20.2 15.3 15.2 73 3.0 W 35 44 19 24 1005.9 - 0.0
13/06:30pm 20.5 15.2 15.3 72 3.1 W 37 44 20 24 1005.9 - 0.0
13/06:00pm 21.1 16.5 14.7 67 3.8 W 32 39 17 21 1006.0 1005.7 0.0
13/05:30pm 21.0 16.5 14.9 68 3.6 W 32 41 17 22 1006.0 - 0.0
13/05:00pm 21.3 17.1 15.6 70 3.4 W 32 44 17 24 1006.3 - 0.0
13/04:30pm 20.9 18.0 16.1 74 2.9 W 26 33 14 18 1006.5 - 0.0
13/04:00pm 21.6 18.3 16.1 71 3.3 W 28 37 15 20 1006.6 - 0.0
13/03:30pm 21.9 18.1 16.6 72 3.2 W 32 43 17 23 1006.6 - 0.0
13/03:00pm 22.2 18.4 16.7 71 3.4 W 32 43 17 23 1006.6 1006.3 0.0
13/02:30pm 22.1 18.4 15.0 64 4.2 W 28 44 15 24 1006.5 - 0.0
13/02:24pm 22.5 18.7 14.6 61 4.7 W 28 46 15 25 1006.6 - 0.0
13/02:00pm 21.9 19.0 17.1 74 3.0 W 28 41 15 22 1006.6 - 0.0
13/01:30pm 22.4 18.6 16.7 70 3.5 W 32 46 17 25 1006.8 - 0.0
13/01:25pm 22.8 19.5 16.1 66 4.1 W 28 46 15 25 1006.8 - 0.0
13/01:00pm 22.7 19.7 15.8 65 4.2 W 26 41 14 22 1007.0 - 0.0
13/12:22pm 23.3 19.6 16.1 64 4.4 W 30 48 16 26 1007.2 - 0.0
13/12:00pm 23.0 20.6 16.3 66 4.1 WNW 24 39 13 21 1007.3 1007.1 0.0
13/11:32am 23.1 18.8 15.4 62 4.6 W 32 50 17 27 1007.4 - 0.0
13/11:30am 23.3 18.9 15.6 62 4.6 W 33 50 18 27 1007.5 - 0.0
13/11:00am 22.2 20.3 15.1 64 4.2 W 19 35 10 19 1007.4 - 0.0
13/10:30am 21.5 18.7 15.3 68 3.7 WNW 24 41 13 22 1007.4 - 0.0
13/10:00am 22.0 19.0 14.9 64 4.2 W 24 44 13 24 1007.8 - 0.0
13/09:37am 22.5 18.5 14.1 59 4.9 NW 28 46 15 25 1006.3 - 0.0
13/09:30am 21.9 18.5 14.8 64 4.2 NW 26 43 14 23 1007.0 - 0.0
13/09:00am 19.2 18.2 16.6 85 1.6 WSW 17 24 9 13 1007.6 1007.4 0.0
13/08:30am 19.1 19.0 16.9 87 1.3 W 13 20 7 11 1007.6 - 0.0
13/08:00am 19.0 16.8 15.9 82 1.8 W 22 26 12 14 1007.7 - 0.0
13/07:30am 19.3 16.1 14.3 73 2.9 WSW 24 28 13 15 1007.3 - 0.0
13/07:00am 19.1 15.9 15.2 78 2.3 WSW 26 30 14 16 1007.2 - 0.0
13/06:30am 18.4 17.7 13.3 72 2.9 SW 9 13 5 7 1006.9 - 0.0
13/06:00am 18.6 17.1 16.2 86 1.4 NNE 19 22 10 12 1006.8 1006.5 0.0
13/05:30am 18.5 17.5 16.7 89 1.1 N 17 19 9 10 1006.9 - 0.0
13/05:00am 18.7 17.1 16.5 87 1.3 NNE 20 24 11 13 1007.3 - 0.0
13/04:30am 19.9 21.6 15.3 75 2.7 CALM 0 0 0 0 1007.6 - 0.0
13/04:00am 19.4 21.1 16.2 82 1.9 N 2 9 1 5 1008.1 - 0.0
13/03:30am 18.8 17.5 17.3 91 0.9 NNE 20 24 11 13 1008.3 - 0.0
13/03:00am 18.9 16.1 17.4 91 0.9 NNE 28 32 15 17 1008.4 1008.2 0.0
13/02:30am 19.0 15.4 17.3 90 1.0 NNE 32 35 17 19 1008.8 - 0.0
13/02:00am 19.0 15.7 17.0 88 1.2 NNE 30 35 16 19 1009.0 - 0.0
13/01:30am 19.0 16.0 16.8 87 1.3 NNE 28 39 15 21 1009.4 - 0.0
13/01:00am 19.0 15.9 16.6 86 1.4 NNE 28 37 15 20 1009.8 - 0.0
13/12:30am 19.2 16.3 16.2 83 1.8 NNE 26 32 14 17 1010.2 - 0.0
13/12:00am 19.1 16.4 16.5 85 1.6 NNE 26 35 14 19 1010.7 1010.5 0.0
 
Date/Time
EDT
Temp
°C
App
Temp
°C
Dew
Point
Rel
Hum
%
Delta-T
°C
Wind Press
QNH
hPa
Press
MSL
hPa
Rain
since 9 am
mm
Dir
 
Spd
km/h
Gust
km/h
Spd
kts
Gust
kts
12/11:30pm 19.2 16.1 16.6 85 1.6 NNE 28 35 15 19 1011.1 - 0.0
12/11:00pm 19.3 16.6 16.5 84 1.7 N 26 37 14 20 1011.8 - 0.0
12/10:30pm 19.2 17.2 16.4 84 1.7 N 22 32 12 17 1012.2 - 0.0
12/10:00pm 19.2 17.6 16.6 85 1.6 NNE 20 28 11 15 1012.3 - 0.0
12/09:00pm 19.3 17.4 16.7 85 1.6 NNE 22 32 12 17 1012.4 1012.2 0.0
12/08:30pm 19.5 18.0 16.7 84 1.7 NNE 20 28 11 15 1012.4 - 0.0
12/08:00pm 19.7 17.5 16.9 84 1.7 NNE 24 32 13 17 1012.5 - 0.0
12/07:30pm 20.0 18.4 16.6 81 2.1 NNE 20 26 11 14 1012.5 - 0.0
12/07:00pm 20.1 18.2 16.7 81 2.1 NE 22 26 12 14 1012.5 - 0.0
12/06:30pm 20.4 18.5 16.6 79 2.3 NE 22 28 12 15 1012.7 - 0.0
12/06:00pm 20.5 18.7 16.9 80 2.2 NE 22 26 12 14 1013.0 1012.8 0.0
12/05:30pm 20.4 18.4 16.4 78 2.4 NE 22 28 12 15 1013.0 - 0.0
12/05:00pm 20.4 18.3 16.2 77 2.5 NE 22 26 12 14 1013.1 - 0.0
12/04:30pm 20.7 18.5 15.9 74 2.9 NE 22 26 12 14 1013.4 - 0.0
12/04:00pm 20.9 19.0 15.7 72 3.1 NE 20 22 11 12 1013.8 - 0.0
12/03:30pm 21.0 19.1 15.3 70 3.4 NE 19 22 10 12 1014.0 - 0.0
12/03:00pm 21.3 19.8 15.2 68 3.6 NE 17 20 9 11 1014.5 1014.3 0.0
12/02:30pm 21.0 19.4 15.1 69 3.5 ENE 17 22 9 12 1014.8 - 0.0
12/02:00pm 20.3 18.9 14.4 69 3.4 ENE 15 19 8 10 1015.2 - 0.0
12/01:30pm 20.2 19.1 14.3 69 3.4 E 13 17 7 9 1015.3 - 0.0
12/01:00pm 20.6 20.0 14.7 69 3.5 E 11 15 6 8 1015.7 - 0.0
12/12:30pm 20.1 19.0 14.2 69 3.4 E 13 15 7 8 1015.9 - 0.0
12/12:00pm 20.2 20.0 14.6 70 3.3 ESE 9 11 5 6 1016.5 1016.3 0.0
12/11:30am 20.5 20.0 14.8 70 3.4 E 11 15 6 8 1016.7 - 0.0
12/11:00am 20.1 19.4 14.2 69 3.4 E 11 13 6 7 1016.8 - 0.0
12/10:30am 20.2 19.4 14.1 68 3.5 ENE 11 15 6 8 1016.9 - 0.0
12/10:00am 19.5 19.2 14.3 72 3.0 E 9 13 5 7 1016.9 - 0.0
12/09:30am 19.6 18.9 14.4 72 3.0 E 11 13 6 7 1016.9 - 0.0
12/09:00am 19.1 18.6 13.7 71 3.1 E 9 11 5 6 1016.7 1016.5 0.0
12/08:30am 19.4 18.4 14.6 74 2.8 ENE 13 17 7 9 1016.6 - 0.0
12/08:00am 18.8 18.1 14.3 75 2.6 ENE 11 15 6 8 1016.3 - 0.0
12/07:30am 18.5 19.8 14.2 76 2.5 CALM 0 0 0 0 1016.3 - 0.0
12/07:00am 16.9 18.1 13.8 82 1.8 CALM 0 0 0 0 1016.3 - 0.0
12/06:30am 16.6 16.4 13.5 82 1.8 W 7 9 4 5 1016.4 - 0.0
12/06:00am 16.7 16.4 13.4 81 1.9 W 7 9 4 5 1016.0 1015.9 0.0
12/05:30am 16.7 16.3 13.0 79 2.1 W 7 9 4 5 1015.9 - 0.0
12/05:00am 16.8 15.6 12.9 78 2.2 W 11 13 6 7 1015.8 - 0.0
12/04:30am 16.7 15.1 12.8 78 2.2 W 13 15 7 8 1015.8 - 0.0
12/04:00am 16.6 14.6 12.8 78 2.1 W 15 17 8 9 1016.0 - 0.0
12/03:30am 16.7 14.6 12.5 76 2.3 W 15 19 8 10 1016.1 - 0.0
12/03:00am 16.8 14.7 12.5 76 2.4 W 15 17 8 9 1016.1 1016.0 0.0
12/02:30am 17.0 15.8 12.7 76 2.4 W 11 13 6 7 1016.3 - 0.0
12/02:00am 16.9 17.3 12.6 76 2.4 W 2 9 1 5 1016.6 - 0.0
12/01:30am 17.1 17.2 12.6 75 2.5 W 4 6 2 3 1017.0 - 0.0
12/01:00am 17.0 16.5 12.5 75 2.5 W 7 9 4 5 1017.2 - 0.0
12/12:30am 17.2 18.1 12.9 76 2.4 CALM 0 9 0 5 1017.4 - 0.0
12/12:00am 17.1 17.5 12.6 75 2.5 W 2 6 1 3 1017.6 1017.4 0.0
 
Date/Time
EDT
Temp
°C
App
Temp
°C
Dew
Point
Rel
Hum
%
Delta-T
°C
Wind Press
QNH
hPa
Press
MSL
hPa
Rain
since 9 am
mm
Dir
 
Spd
km/h
Gust
km/h
Spd
kts
Gust
kts
11/11:30pm 17.3 16.8 12.6 74 2.6 W 7 9 4 5 1017.7 - 0.0
11/11:00pm 17.3 17.0 12.8 75 2.5 W 6 9 3 5 1017.9 - 0.0
11/10:30pm 17.5 17.1 13.0 75 2.5 SW 7 13 4 7 1018.0 - 0.0
11/10:00pm 17.7 17.4 12.6 72 2.8 S 6 15 3 8 1017.7 - 0.0
11/09:30pm 17.9 16.2 12.6 71 3.0 SW 13 20 7 11 1017.4 - 0.0
11/09:00pm 17.9 17.5 12.4 70 3.1 S 6 11 3 6 1017.1 1016.9 0.0
11/08:30pm 18.1 15.0 12.1 68 3.3 SW 20 33 11 18 1016.8 - 0.0
11/08:00pm 18.5 14.7 12.3 67 3.5 SW 24 32 13 17 1016.5 - 0.0
11/07:30pm 19.0 15.2 12.3 65 3.7 WSW 24 28 13 15 1016.1 - 0.0
11/07:00pm 18.9 16.8 12.4 66 3.6 SW 15 22 8 12 1015.8 - 0.0
11/06:30pm 19.4 16.5 12.4 64 3.9 SW 19 24 10 13 1015.8 - 0.0
11/06:00pm 19.4 16.1 12.7 65 3.8 SW 22 30 12 16 1015.9 1015.7 0.0
11/05:30pm 19.1 16.7 12.6 66 3.7 SW 17 26 9 14 1015.9 - 0.0
11/05:00pm 19.4 16.4 12.7 65 3.8 WSW 20 32 11 17 1015.8 - 0.0
11/04:30pm 19.7 16.7 12.5 63 4.1 SW 20 28 11 15 1015.8 - 0.0
11/04:00pm 19.5 17.5 12.7 65 3.8 WSW 15 24 8 13 1015.7 - 0.0
11/03:30pm 19.9 18.9 13.4 66 3.7 W 11 20 6 11 1015.8 - 0.0
11/03:00pm 19.8 16.9 13.0 65 3.9 SW 20 33 11 18 1016.0 1015.9 0.0
11/02:00pm 19.9 17.3 13.8 68 3.5 SW 20 30 11 16 1016.3 - 0.0
11/01:30pm 19.6 18.9 14.4 72 3.0 W 11 22 6 12 1016.3 - 0.0
11/12:30pm 19.7 16.3 14.7 73 2.9 WSW 26 30 14 16 1016.6 - 0.0
11/12:00pm 19.7 16.3 14.7 73 2.9 WSW 26 30 14 16 1017.0 1016.8 0.0
11/11:30am 19.4 15.9 14.4 73 2.9 WSW 26 30 14 16 1017.1 - 0.0
11/11:00am 19.4 16.7 14.6 74 2.8 W 22 28 12 15 1017.2 - 0.0

Other Formats:

Comma delimited format used in spreadsheet applications
http://www.bom.gov.au/fwo/IDV60801/IDV60801.94893.axf

JavaScript Object Notation format (JSON) in row-major order
http://www.bom.gov.au/fwo/IDV60801/IDV60801.94893.json